Time,TemperatureF,DewpointF,PressureIn,WindDirection,WindDirectionDegrees,WindSpeedMPH,WindSpeedGustMPH,Humidity,HourlyPrecipIn,Conditions,Clouds,dailyrainin,SoftwareType,DateUTC
2013-01-31 00:00:00,17.4,12.9,29.64,WNW,292,11.0,24.0,82,0.00,,,0.00,VWS V14.01,2013-01-31 06:00:00,
2013-01-31 00:05:00,17.2,12.0,29.64,NW,306,8.0,24.0,80,0.00,,,0.00,weatherlink.com 1.10,2013-01-31 06:05:00,
2013-01-31 00:20:00,17.0,12.0,29.65,West,280,15.0,24.0,81,0.00,,,0.00,weatherlink.com 1.10,2013-01-31 06:20:00,
2013-01-31 00:30:00,16.9,12.4,29.66,WNW,292,13.0,24.0,82,0.00,,,0.00,VWS V14.01,2013-01-31 06:30:00,
2013-01-31 00:35:00,16.8,12.0,29.66,WNW,284,21.0,22.0,82,0.00,,,0.00,weatherlink.com 1.10,2013-01-31 06:35:00,
2013-01-31 00:50:00,16.5,11.0,29.66,West,271,14.0,22.0,80,0.00,,,0.00,weatherlink.com 1.10,2013-01-31 06:50:00,
2013-01-31 01:00:00,16.2,11.1,29.67,WNW,292,14.0,24.0,80,0.00,,,0.00,VWS V14.01,2013-01-31 07:00:00,
2013-01-31 01:05:00,16.2,11.0,29.67,WNW,288,7.0,23.0,79,0.00,,,0.00,weatherlink.com 1.10,2013-01-31 07:05:00,
2013-01-31 01:20:00,16.1,10.0,29.68,West,265,10.0,22.0,78,0.00,,,0.00,weatherlink.com 1.10,2013-01-31 07:20:00,
2013-01-31 01:30:00,16.1,10.5,29.68,WNW,292,11.0,23.0,78,0.00,,,0.00,VWS V14.01,2013-01-31 07:30:00,
2013-01-31 01:35:00,16.1,10.0,29.69,West,261,5.0,22.0,78,0.00,,,0.00,weatherlink.com 1.10,2013-01-31 07:35:00,
2013-01-31 01:51:00,16.2,11.0,29.70,WNW,292,8.0,22.0,79,0.00,,,0.00,weatherlink.com 1.10,2013-01-31 07:51:00,
2013-01-31 02:00:00,16.3,10.7,29.70,WNW,292,9.0,22.0,78,0.00,,,0.00,VWS V14.01,2013-01-31 08:00:00,
2013-01-31 02:06:00,16.3,10.0,29.70,WNW,298,15.0,21.0,76,0.00,,,0.00,weatherlink.com 1.10,2013-01-31 08:06:00,
2013-01-31 02:21:00,16.2,9.0,29.71,West,261,6.0,22.0,74,0.00,,,0.00,weatherlink.com 1.10,2013-01-31 08:21:00,
2013-01-31 02:30:00,16.0,8.6,29.71,WNW,292,10.0,22.0,72,0.00,,,0.00,VWS V14.01,2013-01-31 08:30:00,
2013-01-31 02:36:00,15.9,9.0,29.71,WSW,239,11.0,23.0,73,0.00,,,0.00,weatherlink.com 1.10,2013-01-31 08:36:00,
2013-01-31 02:51:00,15.8,11.0,29.71,WNW,292,7.0,19.0,80,0.00,,,0.00,weatherlink.com 1.10,2013-01-31 08:51:00,
2013-01-31 03:00:00,15.6,11.9,29.71,WNW,292,9.0,22.0,85,0.00,,,0.00,VWS V14.01,2013-01-31 09:00:00,
2013-01-31 03:06:00,15.4,12.0,29.71,WNW,296,2.0,16.0,85,0.00,,,0.00,weatherlink.com 1.10,2013-01-31 09:06:00,
2013-01-31 03:21:00,15.7,12.0,29.71,West,274,10.0,19.0,86,0.00,,,0.00,weatherlink.com 1.10,2013-01-31 09:21:00,
2013-01-31 03:30:00,15.8,11.8,29.72,WNW,292,10.0,19.0,84,0.00,,,0.00,VWS V14.01,2013-01-31 09:30:00,
2013-01-31 03:36:00,15.8,12.0,29.72,WNW,285,10.0,21.0,84,0.00,,,0.00,weatherlink.com 1.10,2013-01-31 09:36:00,
2013-01-31 03:51:00,15.7,11.0,29.72,WNW,285,13.0,21.0,83,0.00,,,0.00,weatherlink.com 1.10,2013-01-31 09:51:00,
2013-01-31 04:00:00,15.6,11.1,29.73,WNW,292,13.0,20.0,82,0.00,,,0.00,VWS V14.01,2013-01-31 10:00:00,
2013-01-31 04:06:00,15.5,11.0,29.73,WNW,288,15.0,24.0,83,0.00,,,0.00,weatherlink.com 1.10,2013-01-31 10:06:00,
2013-01-31 04:21:00,15.3,11.0,29.73,WNW,284,13.0,26.0,81,0.00,,,0.00,weatherlink.com 1.10,2013-01-31 10:21:00,
2013-01-31 04:30:00,15.3,10.8,29.73,WNW,292,13.0,26.0,82,0.00,,,0.00,VWS V14.01,2013-01-31 10:30:00,
2013-01-31 04:36:00,15.2,10.0,29.74,WNW,290,15.0,24.0,80,0.00,,,0.00,weatherlink.com 1.10,2013-01-31 10:36:00,
2013-01-31 04:51:00,15.3,11.0,29.74,WNW,284,12.0,22.0,83,0.00,,,0.00,weatherlink.com 1.10,2013-01-31 10:51:00,
2013-01-31 05:00:00,15.2,10.7,29.74,WNW,292,13.0,25.0,82,0.00,,,0.00,VWS V14.01,2013-01-31 11:00:00,
2013-01-31 05:06:00,15.3,11.0,29.74,West,280,11.0,21.0,84,0.00,,,0.00,weatherlink.com 1.10,2013-01-31 11:06:00,
2013-01-31 05:21:00,15.2,12.0,29.74,WNW,294,11.0,19.0,85,0.00,,,0.00,weatherlink.com 1.10,2013-01-31 11:21:00,
2013-01-31 05:30:00,15.0,11.3,29.75,WNW,292,10.0,21.0,85,0.00,,,0.00,VWS V14.01,2013-01-31 11:30:00,
2013-01-31 05:36:00,14.8,11.0,29.75,West,279,11.0,18.0,84,0.00,,,0.00,weatherlink.com 1.10,2013-01-31 11:36:00,
2013-01-31 05:51:00,14.5,10.0,29.75,NW,304,8.0,18.0,83,0.00,,,0.00,weatherlink.com 1.10,2013-01-31 11:51:00,
2013-01-31 06:00:00,14.5,10.6,29.75,WNW,292,11.0,19.0,84,0.00,,,0.00,VWS V14.01,2013-01-31 12:00:00,
2013-01-31 06:06:00,14.4,10.0,29.75,WNW,285,10.0,20.0,83,0.00,,,0.00,weatherlink.com 1.10,2013-01-31 12:06:00,
2013-01-31 06:21:00,14.1,10.0,29.76,West,268,13.0,20.0,84,0.00,,,0.00,weatherlink.com 1.10,2013-01-31 12:21:00,
2013-01-31 06:36:00,13.7,10.0,29.77,WNW,286,12.0,20.0,83,0.00,,,0.00,weatherlink.com 1.10,2013-01-31 12:36:00,
2013-01-31 06:45:00,13.4,9.2,29.77,WNW,286,13.0,13.0,83,0.00,,,0.00,VWS V14.01,2013-01-31 12:45:00,
2013-01-31 06:50:00,13.3,9.1,29.77,West,280,13.0,16.0,83,0.50,,,0.00,VWS V14.01,2013-01-31 12:50:00,
2013-01-31 06:55:00,13.1,8.4,29.78,WNW,298,10.0,19.0,81,0.50,,,0.00,VWS V14.01,2013-01-31 12:55:00,
2013-01-31 07:00:00,13.1,8.6,29.78,West,272,12.0,19.0,82,0.50,,,0.00,VWS V14.01,2013-01-31 13:00:00,
2013-01-31 07:05:00,12.9,8.2,29.78,WNW,292,8.0,18.0,81,0.50,,,0.00,VWS V14.01,2013-01-31 13:05:00,
2013-01-31 07:10:00,12.8,8.1,29.79,West,278,12.0,18.0,81,0.50,,,0.00,VWS V14.01,2013-01-31 13:10:00,
2013-01-31 07:15:00,12.6,7.6,29.79,West,279,16.0,18.0,80,0.50,,,0.00,VWS V14.01,2013-01-31 13:15:00,
2013-01-31 07:20:00,12.4,8.0,29.79,WNW,293,13.0,18.0,82,0.50,,,0.00,VWS V14.01,2013-01-31 13:20:00,
2013-01-31 07:25:00,12.4,7.4,29.80,West,275,10.0,19.0,80,0.50,,,0.00,VWS V14.01,2013-01-31 13:25:00,
2013-01-31 07:30:00,12.2,7.5,29.80,WNW,287,7.0,19.0,81,0.50,,,0.00,VWS V14.01,2013-01-31 13:30:00,
2013-01-31 07:35:00,12.2,8.0,29.80,WNW,294,13.0,14.0,83,0.00,,BKN090,0.00,VWS V14.01,2013-01-31 13:35:00,
2013-01-31 07:40:00,12.2,8.0,29.80,WSW,256,11.0,18.0,83,0.00,,BKN090,0.00,VWS V14.01,2013-01-31 13:40:00,
2013-01-31 07:45:00,12.1,8.2,29.80,WNW,289,7.0,18.0,84,0.00,,BKN090,0.00,VWS V14.01,2013-01-31 13:45:00,
2013-01-31 07:50:00,11.9,8.3,29.81,WNW,290,13.0,18.0,85,0.00,,BKN090,0.00,VWS V14.01,2013-01-31 13:50:00,
2013-01-31 07:55:00,12.0,8.1,29.81,WNW,284,9.0,18.0,84,0.00,,OVC055,0.00,VWS V14.01,2013-01-31 13:55:00,
2013-01-31 08:00:00,11.8,7.9,29.82,West,279,13.0,18.0,84,0.00,,OVC055,0.00,VWS V14.01,2013-01-31 14:00:00,
2013-01-31 08:05:00,11.6,8.0,29.82,WNW,293,13.0,17.0,85,0.00,,OVC055,0.00,VWS V14.01,2013-01-31 14:05:00,
2013-01-31 08:10:00,11.6,8.0,29.82,West,281,11.0,17.0,85,0.00,,OVC055,0.00,VWS V14.01,2013-01-31 14:10:00,
2013-01-31 08:15:00,11.4,7.5,29.82,West,267,15.0,17.0,84,0.00,,OVC055,0.00,VWS V14.01,2013-01-31 14:15:00,
2013-01-31 08:20:00,11.2,7.6,29.82,West,277,15.0,17.0,85,0.00,,OVC055,0.00,VWS V14.01,2013-01-31 14:20:00,
2013-01-31 08:25:00,10.9,6.8,29.82,WNW,288,10.0,20.0,83,0.00,,OVC055,0.00,VWS V14.01,2013-01-31 14:25:00,
2013-01-31 08:30:00,10.8,6.7,29.83,West,273,16.0,20.0,83,0.00,,OVC055,0.00,VWS V14.01,2013-01-31 14:30:00,
2013-01-31 08:35:00,10.7,6.3,29.83,NW,314,9.0,16.0,82,0.00,,OVC055,0.00,VWS V14.01,2013-01-31 14:35:00,
2013-01-31 08:40:00,10.5,6.1,29.83,West,279,16.0,19.0,82,0.00,,BKN020,0.00,VWS V14.01,2013-01-31 14:40:00,
2013-01-31 08:45:00,10.3,5.9,29.83,WNW,284,18.0,19.0,82,0.00,,BKN020,0.00,VWS V14.01,2013-01-31 14:45:00,
2013-01-31 08:50:00,10.3,5.9,29.83,West,269,14.0,19.0,82,0.00,,BKN020,0.00,VWS V14.01,2013-01-31 14:50:00,
2013-01-31 08:55:00,10.1,5.4,29.84,WNW,289,6.0,23.0,81,0.00,,SCT017,0.00,VWS V14.01,2013-01-31 14:55:00,
2013-01-31 09:00:00,10.3,5.9,29.84,WNW,285,16.0,23.0,82,0.00,,SCT017,0.00,VWS V14.01,2013-01-31 15:00:00,
2013-01-31 09:05:00,10.4,6.0,29.84,NW,312,10.0,17.0,82,0.00,,SCT017,0.00,VWS V14.01,2013-01-31 15:05:00,
2013-01-31 09:10:00,10.4,6.0,29.84,WNW,300,6.0,17.0,82,0.00,,SCT017,0.00,VWS V14.01,2013-01-31 15:10:00,
2013-01-31 09:15:00,10.4,5.7,29.84,West,280,9.0,19.0,81,0.00,,SCT017,0.00,VWS V14.01,2013-01-31 15:15:00,
2013-01-31 09:20:00,10.7,6.3,29.84,West,269,6.0,19.0,82,0.00,,SCT017,0.00,VWS V14.01,2013-01-31 15:20:00,
2013-01-31 09:25:00,10.9,6.5,29.84,NW,305,10.0,19.0,82,0.00,,SCT017,0.00,VWS V14.01,2013-01-31 15:25:00,
2013-01-31 09:30:00,11.1,6.4,29.84,WNW,288,18.0,20.0,81,0.00,,SCT017,0.00,VWS V14.01,2013-01-31 15:30:00,
2013-01-31 09:35:00,10.8,5.9,29.84,NW,310,9.0,19.0,80,0.00,,SCT017,0.00,VWS V14.01,2013-01-31 15:35:00,
2013-01-31 09:40:00,10.9,5.7,29.85,West,264,14.0,19.0,79,0.00,,FEW017,0.00,VWS V14.01,2013-01-31 15:40:00,
2013-01-31 09:45:00,10.8,5.9,29.85,WNW,292,8.0,23.0,80,0.00,,FEW017,0.00,VWS V14.01,2013-01-31 15:45:00,
2013-01-31 09:50:00,11.0,6.3,29.85,WNW,287,13.0,23.0,81,0.00,,FEW017,0.00,VWS V14.01,2013-01-31 15:50:00,
2013-01-31 09:55:00,11.3,6.6,29.85,WNW,295,12.0,23.0,81,0.00,,FEW017,0.00,VWS V14.01,2013-01-31 15:55:00,
2013-01-31 10:00:00,11.2,6.2,29.85,West,280,14.0,23.0,80,0.00,,FEW017,0.00,VWS V14.01,2013-01-31 16:00:00,
2013-01-31 10:05:00,11.1,5.9,29.86,WNW,288,13.0,19.0,79,0.00,,FEW017,0.00,VWS V14.01,2013-01-31 16:05:00,
2013-01-31 10:10:00,11.2,6.0,29.86,West,270,11.0,19.0,79,0.00,,FEW017,0.00,VWS V14.01,2013-01-31 16:10:00,
2013-01-31 10:15:00,11.1,5.9,29.86,West,265,17.0,20.0,79,0.00,,FEW017,0.00,VWS V14.01,2013-01-31 16:15:00,
2013-01-31 10:20:00,11.0,5.5,29.87,WNW,295,10.0,20.0,78,0.00,,FEW017,0.00,VWS V14.01,2013-01-31 16:20:00,
2013-01-31 10:25:00,11.1,5.9,29.87,WNW,298,13.0,20.0,79,0.00,,FEW017,0.00,VWS V14.01,2013-01-31 16:25:00,
2013-01-31 10:30:00,11.0,5.8,29.87,West,281,11.0,20.0,79,0.00,,FEW017,0.00,VWS V14.01,2013-01-31 16:30:00,
2013-01-31 10:35:00,10.9,5.7,29.88,WNW,295,10.0,18.0,79,0.00,,FEW019,0.00,VWS V14.01,2013-01-31 16:35:00,
2013-01-31 10:40:00,10.9,5.4,29.88,WNW,287,11.0,18.0,78,0.00,,FEW019,0.00,VWS V14.01,2013-01-31 16:40:00,
2013-01-31 10:45:00,10.9,5.9,29.88,West,269,13.0,18.0,80,0.00,,FEW019,0.00,VWS V14.01,2013-01-31 16:45:00,
2013-01-31 10:50:00,10.9,5.7,29.88,West,264,9.0,18.0,79,0.00,,FEW019,0.00,VWS V14.01,2013-01-31 16:50:00,
2013-01-31 10:55:00,11.3,6.1,29.88,West,272,9.0,18.0,79,0.00,,FEW019,0.00,VWS V14.01,2013-01-31 16:55:00,
2013-01-31 11:00:00,11.7,6.5,29.88,West,265,8.0,18.0,79,0.00,,FEW019,0.00,VWS V14.01,2013-01-31 17:00:00,
2013-01-31 11:05:00,12.1,6.8,29.88,West,275,14.0,19.0,79,0.00,,FEW019,0.00,VWS V14.01,2013-01-31 17:05:00,
2013-01-31 11:10:00,12.5,7.0,29.88,WNW,298,11.0,19.0,78,0.00,,FEW019,0.00,VWS V14.01,2013-01-31 17:10:00,
2013-01-31 11:15:00,12.4,6.9,29.89,WNW,298,11.0,19.0,78,0.00,,FEW019,0.00,VWS V14.01,2013-01-31 17:15:00,
2013-01-31 11:20:00,12.0,6.2,29.88,WNW,294,18.0,19.0,77,0.00,,FEW019,0.00,VWS V14.01,2013-01-31 17:20:00,
2013-01-31 11:25:00,11.6,5.8,29.89,WNW,292,8.0,19.0,77,0.00,,FEW019,0.00,VWS V14.01,2013-01-31 17:25:00,
2013-01-31 11:30:00,11.8,6.3,29.89,WNW,290,16.0,23.0,78,0.00,,FEW019,0.00,VWS V14.01,2013-01-31 17:30:00,
2013-01-31 11:35:00,11.7,6.5,29.89,WNW,287,17.0,20.0,79,0.00,,SCT021,0.00,VWS V14.01,2013-01-31 17:35:00,
2013-01-31 11:40:00,11.6,6.4,29.89,WNW,288,8.0,20.0,79,0.00,,SCT021,0.00,VWS V14.01,2013-01-31 17:40:00,
2013-01-31 11:45:00,11.5,6.0,29.90,West,271,18.0,20.0,78,0.00,,SCT021,0.00,VWS V14.01,2013-01-31 17:45:00,
2013-01-31 11:50:00,11.5,6.5,29.90,West,264,10.0,20.0,80,0.00,,SCT021,0.00,VWS V14.01,2013-01-31 17:50:00,
2013-01-31 11:55:00,11.7,6.7,29.90,WNW,288,12.0,20.0,80,0.00,,SCT021,0.00,VWS V14.01,2013-01-31 17:55:00,
2013-01-31 12:00:00,11.5,6.0,29.90,NW,304,11.0,21.0,78,0.00,,SCT021,0.00,VWS V14.01,2013-01-31 18:00:00,
2013-01-31 12:05:00,11.9,6.4,29.90,WNW,287,9.0,17.0,78,0.00,,BKN017,0.00,VWS V14.01,2013-01-31 18:05:00,
2013-01-31 12:10:00,11.7,6.2,29.90,WNW,288,11.0,19.0,78,0.00,,BKN017,0.00,VWS V14.01,2013-01-31 18:10:00,
2013-01-31 12:15:00,11.8,6.3,29.90,West,277,8.0,19.0,78,0.00,,BKN017,0.00,VWS V14.01,2013-01-31 18:15:00,
2013-01-31 12:20:00,11.8,6.6,29.90,NW,309,12.0,19.0,79,0.00,,BKN017,0.00,VWS V14.01,2013-01-31 18:20:00,
2013-01-31 12:25:00,11.3,5.2,29.90,WNW,288,9.0,20.0,76,0.00,,BKN017,0.00,VWS V14.01,2013-01-31 18:25:00,
2013-01-31 12:30:00,11.4,5.9,29.91,WNW,291,17.0,20.0,78,0.00,,BKN017,0.00,VWS V14.01,2013-01-31 18:30:00,
2013-01-31 12:35:00,11.6,5.8,29.91,WNW,284,14.0,20.0,77,0.00,,BKN017,0.00,VWS V14.01,2013-01-31 18:35:00,
2013-01-31 12:40:00,11.6,5.5,29.91,WNW,288,15.0,20.0,76,0.00,,BKN017,0.00,VWS V14.01,2013-01-31 18:40:00,
2013-01-31 12:45:00,11.7,6.7,29.91,West,277,12.0,20.0,80,0.00,,BKN017,0.00,VWS V14.01,2013-01-31 18:45:00,
2013-01-31 12:50:00,11.5,5.7,29.91,West,277,13.0,20.0,77,0.00,,BKN017,0.00,VWS V14.01,2013-01-31 18:50:00,
2013-01-31 12:55:00,11.6,5.8,29.91,WNW,292,18.0,20.0,77,0.00,,BKN017,0.00,VWS V14.01,2013-01-31 18:55:00,
2013-01-31 13:00:00,11.4,5.6,29.91,WNW,291,18.0,23.0,77,0.00,,BKN017,0.00,VWS V14.01,2013-01-31 19:00:00,
2013-01-31 13:05:00,11.4,5.3,29.91,WNW,296,13.0,18.0,76,0.00,,BKN017,0.00,VWS V14.01,2013-01-31 19:05:00,
2013-01-31 13:10:00,11.0,5.8,29.91,West,275,13.0,19.0,79,0.00,,BKN017,0.00,VWS V14.01,2013-01-31 19:10:00,
2013-01-31 13:15:00,11.7,7.0,29.91,WNW,296,16.0,19.0,81,0.00,,BKN017,0.00,VWS V14.01,2013-01-31 19:15:00,
2013-01-31 13:20:00,12.2,6.1,29.92,WNW,293,20.0,20.0,76,0.00,,BKN017,0.00,VWS V14.01,2013-01-31 19:20:00,
2013-01-31 13:25:00,11.8,6.3,29.92,WNW,284,9.0,20.0,78,0.00,,BKN017,0.00,VWS V14.01,2013-01-31 19:25:00,
2013-01-31 13:30:00,11.8,6.0,29.92,WNW,286,14.0,20.0,77,0.00,,BKN017,0.00,VWS V14.01,2013-01-31 19:30:00,
2013-01-31 13:35:00,11.8,5.7,29.92,West,278,3.0,16.0,76,0.00,,,0.00,VWS V14.01,2013-01-31 19:35:00,
2013-01-31 13:40:00,11.6,5.5,29.92,West,265,10.0,21.0,76,0.00,,,0.00,VWS V14.01,2013-01-31 19:40:00,
2013-01-31 13:45:00,11.6,6.1,29.92,WNW,291,16.0,21.0,78,0.00,,,0.00,VWS V14.01,2013-01-31 19:45:00,
2013-01-31 13:50:00,11.3,5.8,29.92,WNW,287,15.0,21.0,78,0.00,,,0.00,VWS V14.01,2013-01-31 19:50:00,
2013-01-31 13:55:00,11.3,4.6,29.92,NW,326,6.0,21.0,74,0.00,,,0.00,VWS V14.01,2013-01-31 19:55:00,
2013-01-31 14:00:00,11.3,4.9,29.92,WNW,298,7.0,21.0,75,0.00,,,0.00,VWS V14.01,2013-01-31 20:00:00,
2013-01-31 14:05:00,11.3,6.6,29.92,West,277,8.0,18.0,81,0.00,,,0.00,VWS V14.01,2013-01-31 20:05:00,
2013-01-31 14:10:00,11.0,5.2,29.92,WNW,282,6.0,18.0,77,0.00,,,0.00,VWS V14.01,2013-01-31 20:10:00,
2013-01-31 14:15:00,10.9,5.7,29.92,WNW,286,7.0,18.0,79,0.00,,,0.00,VWS V14.01,2013-01-31 20:15:00,
2013-01-31 14:20:00,11.1,5.6,29.92,WNW,298,9.0,18.0,78,0.00,,,0.00,VWS V14.01,2013-01-31 20:20:00,
2013-01-31 14:25:00,11.1,5.0,29.93,WNW,298,9.0,18.0,76,0.00,,,0.00,VWS V14.01,2013-01-31 20:25:00,
2013-01-31 14:30:00,10.9,4.2,29.93,NW,304,7.0,18.0,74,0.00,,,0.00,VWS V14.01,2013-01-31 20:30:00,
2013-01-31 14:35:00,10.8,4.7,29.93,WNW,296,9.0,16.0,76,0.00,,,0.00,VWS V14.01,2013-01-31 20:35:00,
2013-01-31 14:40:00,10.8,5.3,29.93,WNW,292,7.0,16.0,78,0.00,,,0.00,VWS V14.01,2013-01-31 20:40:00,
2013-01-31 14:45:00,10.5,6.4,29.93,WNW,300,8.0,22.0,83,0.00,,,0.00,VWS V14.01,2013-01-31 20:45:00,
2013-01-31 14:50:00,10.2,5.5,29.93,WNW,286,5.0,22.0,81,0.00,,,0.00,VWS V14.01,2013-01-31 20:50:00,
2013-01-31 14:55:00,10.0,4.8,29.94,West,269,3.0,22.0,79,0.00,,,0.00,VWS V14.01,2013-01-31 20:55:00,
2013-01-31 15:00:00,10.2,4.4,29.94,WNW,286,5.0,22.0,77,0.00,,,0.00,VWS V14.01,2013-01-31 21:00:00,
2013-01-31 15:05:00,10.3,4.0,29.94,West,279,4.0,13.0,75,0.00,,,0.00,VWS V14.01,2013-01-31 21:05:00,
2013-01-31 15:10:00,10.0,3.4,29.94,West,259,13.0,16.0,74,0.00,,,0.00,VWS V14.01,2013-01-31 21:10:00,
2013-01-31 15:15:00,9.9,3.9,29.94,ENE,61,2.0,16.0,76,0.00,,,0.00,VWS V14.01,2013-01-31 21:15:00,
2013-01-31 15:20:00,10.0,4.0,29.95,West,280,14.0,16.0,76,0.00,,,0.00,VWS V14.01,2013-01-31 21:20:00,
2013-01-31 15:25:00,9.8,4.1,29.95,West,280,7.0,20.0,77,0.00,,,0.00,VWS V14.01,2013-01-31 21:25:00,
2013-01-31 15:30:00,9.8,3.8,29.95,NW,306,3.0,20.0,76,0.00,,,0.00,VWS V14.01,2013-01-31 21:30:00,
2013-01-31 15:35:00,9.8,3.5,29.96,NW,320,13.0,15.0,75,0.00,,,0.00,VWS V14.01,2013-01-31 21:35:00,
2013-01-31 15:40:00,9.8,4.6,29.96,North,349,12.0,21.0,79,0.00,,,0.00,VWS V14.01,2013-01-31 21:40:00,
2013-01-31 15:45:00,9.6,3.8,29.96,West,270,10.0,21.0,77,0.00,,,0.00,VWS V14.01,2013-01-31 21:45:00,
2013-01-31 15:50:00,9.6,3.3,29.97,SW,221,8.0,21.0,75,0.00,,,0.00,VWS V14.01,2013-01-31 21:50:00,
2013-01-31 15:55:00,9.4,3.4,29.97,WNW,284,7.0,21.0,76,0.00,,,0.00,VWS V14.01,2013-01-31 21:55:00,
2013-01-31 16:00:00,9.2,4.0,29.97,WNW,295,3.0,21.0,79,0.00,,,0.00,VWS V14.01,2013-01-31 22:00:00,
2013-01-31 16:05:00,9.1,5.0,29.97,WNW,286,11.0,13.0,83,0.00,,,0.00,VWS V14.01,2013-01-31 22:05:00,
2013-01-31 16:10:00,8.7,4.9,29.97,West,263,7.0,19.0,84,0.00,,,0.00,VWS V14.01,2013-01-31 22:10:00,
2013-01-31 16:15:00,8.9,4.3,29.98,WSW,253,9.0,19.0,81,0.00,,,0.00,VWS V14.01,2013-01-31 22:15:00,
2013-01-31 16:20:00,8.8,5.0,29.98,West,267,15.0,23.0,84,0.00,,,0.00,VWS V14.01,2013-01-31 22:20:00,
2013-01-31 16:25:00,8.7,5.4,29.98,WNW,283,11.0,23.0,86,0.00,,,0.00,VWS V14.01,2013-01-31 22:25:00,
2013-01-31 16:30:00,8.5,4.7,29.98,West,277,11.0,23.0,84,0.00,,,0.00,VWS V14.01,2013-01-31 22:30:00,
2013-01-31 16:35:00,8.3,4.7,29.98,West,276,8.0,21.0,85,0.00,,BKN250,0.00,VWS V14.01,2013-01-31 22:35:00,
2013-01-31 16:40:00,8.1,4.5,29.99,WNW,286,18.0,21.0,85,0.00,,BKN250,0.00,VWS V14.01,2013-01-31 22:40:00,
2013-01-31 16:45:00,7.8,3.7,29.99,WNW,283,9.0,21.0,83,0.00,,BKN250,0.00,VWS V14.01,2013-01-31 22:45:00,
2013-01-31 16:50:00,7.7,3.4,29.99,West,279,22.0,22.0,82,0.00,,BKN250,0.00,VWS V14.01,2013-01-31 22:50:00,
2013-01-31 16:55:00,7.4,3.1,30.00,WNW,295,11.0,22.0,82,0.00,,BKN250,0.00,VWS V14.01,2013-01-31 22:55:00,
2013-01-31 17:00:00,7.4,3.1,30.00,WNW,291,21.0,22.0,82,0.00,,BKN250,0.00,VWS V14.01,2013-01-31 23:00:00,
2013-01-31 17:05:00,7.4,3.1,30.00,West,271,17.0,19.0,82,0.00,,BKN250,0.00,VWS V14.01,2013-01-31 23:05:00,
2013-01-31 17:09:00,7.3,3.0,30.00,West,281,23.0,26.0,82,0.00,,BKN250,0.00,VWS V14.01,2013-01-31 23:09:00,
2013-01-31 17:14:00,7.1,3.3,30.01,West,279,9.0,26.0,84,0.00,,BKN250,0.00,VWS V14.01,2013-01-31 23:14:00,
2013-01-31 17:19:00,7.1,3.5,30.01,WNW,289,9.0,26.0,85,0.00,,BKN250,0.00,VWS V14.01,2013-01-31 23:19:00,
2013-01-31 17:24:00,7.1,3.5,30.01,West,280,9.0,26.0,85,0.00,,BKN250,0.00,VWS V14.01,2013-01-31 23:24:00,
2013-01-31 17:29:00,6.9,2.8,30.01,WNW,295,12.0,26.0,83,0.00,,BKN250,0.00,VWS V14.01,2013-01-31 23:29:00,
2013-01-31 17:34:00,6.9,2.6,30.02,WNW,286,16.0,18.0,82,0.00,,BKN250,0.00,VWS V14.01,2013-01-31 23:34:00,
2013-01-31 17:39:00,6.8,2.5,30.02,WNW,283,9.0,18.0,82,0.00,,BKN250,0.00,VWS V14.01,2013-01-31 23:39:00,
2013-01-31 17:44:00,6.7,2.4,30.03,WNW,285,12.0,20.0,82,0.00,,BKN250,0.00,VWS V14.01,2013-01-31 23:44:00,
2013-01-31 17:49:00,6.6,2.3,30.03,WNW,287,10.0,20.0,82,0.00,,BKN250,0.00,VWS V14.01,2013-01-31 23:49:00,
2013-01-31 17:54:00,6.5,2.2,30.03,WNW,283,10.0,23.0,82,0.00,,SCT250,0.00,VWS V14.01,2013-01-31 23:54:00,
2013-01-31 17:59:00,6.3,2.5,30.04,West,276,7.0,23.0,84,0.00,,SCT250,0.00,VWS V14.01,2013-01-31 23:59:00,
2013-01-31 18:11:00,6.1,2.0,30.04,WNW,299,10.0,22.0,83,0.00,,,0.00,weatherlink.com 1.10,2013-02-01 00:11:00,
2013-01-31 18:27:00,5.9,2.0,30.05,West,281,11.0,19.0,82,0.00,,,0.00,weatherlink.com 1.10,2013-02-01 00:27:00,
2013-01-31 18:30:00,5.9,1.9,30.06,WNW,292,11.0,21.0,83,0.00,,SCT250,0.00,VWS V14.01,2013-02-01 00:30:00,
2013-01-31 18:42:00,5.6,2.0,30.07,West,280,16.0,20.0,83,0.00,,,0.00,weatherlink.com 1.10,2013-02-01 00:42:00,
2013-01-31 18:57:00,5.4,1.0,30.07,WNW,292,16.0,20.0,83,0.00,,,0.00,weatherlink.com 1.10,2013-02-01 00:57:00,
2013-01-31 19:00:00,5.3,1.3,30.07,WNW,292,11.0,20.0,83,0.00,,SCT250,0.00,VWS V14.01,2013-02-01 01:00:00,
2013-01-31 19:12:00,5.0,1.0,30.08,WNW,298,6.0,23.0,83,0.00,,,0.00,weatherlink.com 1.10,2013-02-01 01:12:00,
2013-01-31 19:27:00,4.9,1.0,30.09,West,269,13.0,19.0,85,0.00,,,0.00,weatherlink.com 1.10,2013-02-01 01:27:00,
2013-01-31 19:30:00,4.9,0.6,30.09,WNW,292,12.0,23.0,82,0.00,,SCT250,0.00,VWS V14.01,2013-02-01 01:30:00,
2013-01-31 19:42:00,4.6,-1.0,30.09,West,275,15.0,27.0,78,0.00,,,0.00,weatherlink.com 1.10,2013-02-01 01:42:00,
2013-01-31 19:57:00,4.2,-2.0,30.10,NW,321,9.0,24.0,77,0.00,,,0.00,weatherlink.com 1.10,2013-02-01 01:57:00,
2013-01-31 20:00:00,4.1,-1.2,30.10,WNW,292,11.0,26.0,78,0.00,,SCT250,0.00,VWS V14.01,2013-02-01 02:00:00,
2013-01-31 20:12:00,3.9,-2.0,30.11,West,273,10.0,18.0,78,0.00,,,0.00,weatherlink.com 1.10,2013-02-01 02:12:00,
2013-01-31 20:27:00,3.7,-1.0,30.12,NW,317,5.0,21.0,79,0.00,,,0.00,weatherlink.com 1.10,2013-02-01 02:27:00,
2013-01-31 20:30:00,3.7,-1.3,30.12,WNW,292,9.0,24.0,79,0.00,,SCT250,0.00,VWS V14.01,2013-02-01 02:30:00,
2013-01-31 20:42:00,3.3,-2.0,30.13,NW,325,6.0,25.0,78,0.00,,,0.00,weatherlink.com 1.10,2013-02-01 02:42:00,
2013-01-31 20:57:00,3.0,-2.0,30.14,WNW,286,6.0,18.0,80,0.00,,,0.00,weatherlink.com 1.10,2013-02-01 02:57:00,
2013-01-31 21:00:00,2.9,-1.9,30.14,WNW,292,10.0,25.0,80,0.00,,SCT250,0.00,VWS V14.01,2013-02-01 03:00:00,
2013-01-31 21:12:00,2.6,-3.0,30.14,WNW,292,5.0,25.0,79,0.00,,,0.00,weatherlink.com 1.10,2013-02-01 03:12:00,
2013-01-31 21:27:00,2.5,-2.0,30.15,WNW,298,12.0,17.0,80,0.00,,,0.00,weatherlink.com 1.10,2013-02-01 03:27:00,
2013-01-31 21:30:00,2.5,-2.2,30.15,WNW,292,8.0,24.0,80,0.00,,SCT250,0.00,VWS V14.01,2013-02-01 03:30:00,
2013-01-31 21:43:00,2.3,-3.0,30.16,NW,305,11.0,21.0,80,0.00,,,0.00,weatherlink.com 1.10,2013-02-01 03:43:00,
2013-01-31 21:58:00,2.1,-3.0,30.16,West,273,9.0,19.0,80,0.00,,,0.00,weatherlink.com 1.10,2013-02-01 03:58:00,
2013-01-31 22:00:00,2.1,-2.6,30.16,WNW,292,9.0,20.0,80,0.00,,SCT250,0.00,VWS V14.01,2013-02-01 04:00:00,
2013-01-31 22:13:00,2.0,-3.0,30.17,West,263,10.0,16.0,80,0.00,,,0.00,weatherlink.com 1.10,2013-02-01 04:13:00,
2013-01-31 22:28:00,1.8,-3.0,30.17,West,263,10.0,19.0,80,0.00,,,0.00,weatherlink.com 1.10,2013-02-01 04:28:00,
2013-01-31 22:30:00,1.8,-2.9,30.17,WNW,292,8.0,24.0,80,0.00,,SCT250,0.00,VWS V14.01,2013-02-01 04:30:00,
2013-01-31 22:43:00,1.7,-3.0,30.17,WNW,292,11.0,17.0,79,0.00,,,0.00,weatherlink.com 1.10,2013-02-01 04:43:00,
2013-01-31 22:58:00,1.6,-3.0,30.18,WNW,303,5.0,14.0,80,0.00,,,0.00,weatherlink.com 1.10,2013-02-01 04:58:00,
2013-01-31 23:00:00,1.6,-3.1,30.18,WNW,292,8.0,19.0,80,0.00,,SCT250,0.00,VWS V14.01,2013-02-01 05:00:00,
2013-01-31 23:13:00,1.4,-3.0,30.19,NW,310,6.0,15.0,80,0.00,,,0.00,weatherlink.com 1.10,2013-02-01 05:13:00,
2013-01-31 23:28:00,1.3,-4.0,30.20,West,279,10.0,17.0,80,0.00,,,0.00,weatherlink.com 1.10,2013-02-01 05:28:00,
2013-01-31 23:30:00,1.3,-3.4,30.20,WNW,292,8.0,17.0,80,0.00,,SCT250,0.00,VWS V14.01,2013-02-01 05:30:00,
2013-01-31 23:43:00,1.2,-4.0,30.21,NW,312,10.0,16.0,80,0.00,,,0.00,weatherlink.com 1.10,2013-02-01 05:43:00,
2013-01-31 23:58:00,1.1,-4.0,30.22,WNW,290,11.0,16.0,80,0.00,,,0.00,weatherlink.com 1.10,2013-02-01 05:58:00,